sensor_id;sensor_type;location;lat;lon;timestamp;temperature;humidity
54824;DHT22;40724;53.196;5.980;2023-07-08T00:21:18;21.50;77.80
54824;DHT22;40724;53.196;5.980;2023-07-08T00:23:50;21.10;78.80
54824;DHT22;40724;53.196;5.980;2023-07-08T00:26:23;21.00;78.90
54824;DHT22;40724;53.196;5.980;2023-07-08T00:28:51;21.00;79.00
54824;DHT22;40724;53.196;5.980;2023-07-08T00:31:16;21.00;79.00
54824;DHT22;40724;53.196;5.980;2023-07-08T00:33:42;20.90;79.10
54824;DHT22;40724;53.196;5.980;2023-07-08T00:36:13;20.90;79.20
54824;DHT22;40724;53.196;5.980;2023-07-08T00:38:39;20.90;79.30
54824;DHT22;40724;53.196;5.980;2023-07-08T00:41:34;20.90;79.40
54824;DHT22;40724;53.196;5.980;2023-07-08T00:44:00;20.80;79.60
54824;DHT22;40724;53.196;5.980;2023-07-08T00:52:23;20.70;79.70
54824;DHT22;40724;53.196;5.980;2023-07-08T00:54:51;20.70;79.90
54824;DHT22;40724;53.196;5.980;2023-07-08T00:57:18;20.60;79.80
54824;DHT22;40724;53.196;5.980;2023-07-08T00:59:56;20.60;79.80
54824;DHT22;40724;53.196;5.980;2023-07-08T01:02:25;20.60;80.00
54824;DHT22;40724;53.196;5.980;2023-07-08T01:05:00;20.60;79.90
54824;DHT22;40724;53.196;5.980;2023-07-08T07:07:29;20.50;80.00
54824;DHT22;40724;53.196;5.980;2023-07-08T07:09:56;20.30;86.50
54824;DHT22;40724;53.196;5.980;2023-07-08T07:12:23;20.30;86.50
54824;DHT22;40724;53.196;5.980;2023-07-08T07:14:49;20.30;86.60
54824;DHT22;40724;53.196;5.980;2023-07-08T07:17:17;20.30;86.70
54824;DHT22;40724;53.196;5.980;2023-07-08T07:19:42;20.40;86.70
54824;DHT22;40724;53.196;5.980;2023-07-08T07:22:08;20.40;86.70
54824;DHT22;40724;53.196;5.980;2023-07-08T07:24:34;20.50;86.70
54824;DHT22;40724;53.196;5.980;2023-07-08T07:27:00;20.50;86.70
54824;DHT22;40724;53.196;5.980;2023-07-08T07:29:26;20.60;86.70
54824;DHT22;40724;53.196;5.980;2023-07-08T07:31:52;20.60;86.80
54824;DHT22;40724;53.196;5.980;2023-07-08T07:34:17;20.70;86.80
54824;DHT22;40724;53.196;5.980;2023-07-08T07:36:43;20.70;86.80
54824;DHT22;40724;53.196;5.980;2023-07-08T10:02:42;20.80;86.80
54824;DHT22;40724;53.196;5.980;2023-07-08T10:07:45;25.40;84.50
54824;DHT22;40724;53.196;5.980;2023-07-08T10:10:16;25.40;84.30
54824;DHT22;40724;53.196;5.980;2023-07-08T10:12:49;25.50;84.20
54824;DHT22;40724;53.196;5.980;2023-07-08T10:17:56;25.70;84.10
54824;DHT22;40724;53.196;5.980;2023-07-08T10:20:22;25.80;84.00
54824;DHT22;40724;53.196;5.980;2023-07-08T10:47:33;26.70;83.10
54824;DHT22;40724;53.196;5.980;2023-07-08T10:50:39;26.80;83.10
54824;DHT22;40724;53.196;5.980;2023-07-08T11:06:22;27.40;82.60
54824;DHT22;40724;53.196;5.980;2023-07-08T11:08:57;27.50;82.40
54824;DHT22;40724;53.196;5.980;2023-07-08T11:14:09;27.60;82.20
54824;DHT22;40724;53.196;5.980;2023-07-08T11:16:45;27.70;82.10
54824;DHT22;40724;53.196;5.980;2023-07-08T11:19:26;27.70;82.00
54824;DHT22;40724;53.196;5.980;2023-07-08T11:21:57;27.90;81.90
54824;DHT22;40724;53.196;5.980;2023-07-08T11:24:47;27.90;81.60
54824;DHT22;40724;53.196;5.980;2023-07-08T11:27:29;28.00;81.20
54824;DHT22;40724;53.196;5.980;2023-07-08T11:50:30;28.10;81.30
54824;DHT22;40724;53.196;5.980;2023-07-08T11:53:00;28.80;80.00
54824;DHT22;40724;53.196;5.980;2023-07-08T11:58:01;28.80;80.00
54824;DHT22;40724;53.196;5.980;2023-07-08T12:00:31;29.00;79.80
54824;DHT22;40724;53.196;5.980;2023-07-08T12:03:18;29.10;79.10
54824;DHT22;40724;53.196;5.980;2023-07-08T12:05:44;29.10;79.00
54824;DHT22;40724;53.196;5.980;2023-07-08T12:20:57;29.20;78.90
54824;DHT22;40724;53.196;5.980;2023-07-08T12:23:25;29.70;77.20
54824;DHT22;40724;53.196;5.980;2023-07-08T12:25:52;29.70;76.90
54824;DHT22;40724;53.196;5.980;2023-07-08T12:28:19;29.80;76.60
54824;DHT22;40724;53.196;5.980;2023-07-08T12:30:46;29.80;76.50
54824;DHT22;40724;53.196;5.980;2023-07-08T12:33:17;29.90;76.40
54824;DHT22;40724;53.196;5.980;2023-07-08T12:35:45;30.00;76.10
54824;DHT22;40724;53.196;5.980;2023-07-08T12:38:27;30.10;76.00
54824;DHT22;40724;53.196;5.980;2023-07-08T12:40:55;30.10;75.50
54824;DHT22;40724;53.196;5.980;2023-07-08T12:43:22;30.20;75.10
54824;DHT22;40724;53.196;5.980;2023-07-08T12:45:48;30.30;74.90
54824;DHT22;40724;53.196;5.980;2023-07-08T12:48:14;30.30;74.50
54824;DHT22;40724;53.196;5.980;2023-07-08T12:50:40;30.40;74.50
54824;DHT22;40724;53.196;5.980;2023-07-08T12:53:06;30.40;74.40
54824;DHT22;40724;53.196;5.980;2023-07-08T12:55:39;30.50;74.20
54824;DHT22;40724;53.196;5.980;2023-07-08T12:58:13;30.50;73.90
54824;DHT22;40724;53.196;5.980;2023-07-08T13:00:40;30.50;74.20
54824;DHT22;40724;53.196;5.980;2023-07-08T13:03:12;30.60;74.30
54824;DHT22;40724;53.196;5.980;2023-07-08T13:05:40;30.60;73.90
54824;DHT22;40724;53.196;5.980;2023-07-08T13:08:13;30.70;73.20
54824;DHT22;40724;53.196;5.980;2023-07-08T13:10:39;30.70;72.60
54824;DHT22;40724;53.196;5.980;2023-07-08T13:13:10;30.80;72.60
54824;DHT22;40724;53.196;5.980;2023-07-08T13:15:39;30.80;72.60
54824;DHT22;40724;53.196;5.980;2023-07-08T13:18:15;30.90;72.40
54824;DHT22;40724;53.196;5.980;2023-07-08T13:20:48;30.90;72.20
54824;DHT22;40724;53.196;5.980;2023-07-08T13:23:15;31.00;71.80
54824;DHT22;40724;53.196;5.980;2023-07-08T13:25:41;31.00;71.80
54824;DHT22;40724;53.196;5.980;2023-07-08T13:28:25;31.10;71.90
54824;DHT22;40724;53.196;5.980;2023-07-08T13:30:57;31.10;71.60
54824;DHT22;40724;53.196;5.980;2023-07-08T13:33:23;31.10;71.50
54824;DHT22;40724;53.196;5.980;2023-07-08T13:35:51;31.20;71.20
54824;DHT22;40724;53.196;5.980;2023-07-08T13:38:25;31.20;71.00
54824;DHT22;40724;53.196;5.980;2023-07-08T13:40:56;31.20;71.00
54824;DHT22;40724;53.196;5.980;2023-07-08T13:43:31;31.30;71.20
54824;DHT22;40724;53.196;5.980;2023-07-08T13:45:58;31.40;71.20
54824;DHT22;40724;53.196;5.980;2023-07-08T13:48:41;31.40;71.10
54824;DHT22;40724;53.196;5.980;2023-07-08T13:51:17;31.40;70.80
54824;DHT22;40724;53.196;5.980;2023-07-08T13:56:19;31.60;70.90
54824;DHT22;40724;53.196;5.980;2023-07-08T13:58:48;31.60;70.80
54824;DHT22;40724;53.196;5.980;2023-07-08T14:01:22;31.70;70.90
54824;DHT22;40724;53.196;5.980;2023-07-08T14:03:48;31.70;70.80
54824;DHT22;40724;53.196;5.980;2023-07-08T14:06:16;31.80;71.00
54824;DHT22;40724;53.196;5.980;2023-07-08T14:20:56;31.80;71.00
54824;DHT22;40724;53.196;5.980;2023-07-08T14:35:37;32.20;70.50
54824;DHT22;40724;53.196;5.980;2023-07-08T14:38:12;32.50;70.00
54824;DHT22;40724;53.196;5.980;2023-07-08T14:40:40;32.50;69.30
54824;DHT22;40724;53.196;5.980;2023-07-08T14:43:09;32.60;67.70
54824;DHT22;40724;53.196;5.980;2023-07-08T14:45:48;32.60;66.50
54824;DHT22;40724;53.196;5.980;2023-07-08T14:48:14;32.50;66.00
54824;DHT22;40724;53.196;5.980;2023-07-08T14:50:40;32.50;66.00
54824;DHT22;40724;53.196;5.980;2023-07-08T14:53:06;32.40;65.40
54824;DHT22;40724;53.196;5.980;2023-07-08T14:55:33;32.50;64.10
54824;DHT22;40724;53.196;5.980;2023-07-08T14:57:59;32.40;63.80
54824;DHT22;40724;53.196;5.980;2023-07-08T15:00:25;32.40;64.10
54824;DHT22;40724;53.196;5.980;2023-07-08T15:02:51;32.40;64.10
54824;DHT22;40724;53.196;5.980;2023-07-08T15:05:23;32.40;63.10
54824;DHT22;40724;53.196;5.980;2023-07-08T15:07:50;32.40;63.20
54824;DHT22;40724;53.196;5.980;2023-07-08T15:10:16;32.40;62.60
54824;DHT22;40724;53.196;5.980;2023-07-08T15:12:43;32.40;62.60
54824;DHT22;40724;53.196;5.980;2023-07-08T15:17:53;32.50;63.40
54824;DHT22;40724;53.196;5.980;2023-07-08T15:20:19;32.50;64.30
54824;DHT22;40724;53.196;5.980;2023-07-08T15:22:46;32.60;64.10
54824;DHT22;40724;53.196;5.980;2023-07-08T15:25:13;32.60;63.90
54824;DHT22;40724;53.196;5.980;2023-07-08T15:27:45;32.80;63.60
54824;DHT22;40724;53.196;5.980;2023-07-08T15:30:21;32.70;62.00
54824;DHT22;40724;53.196;5.980;2023-07-08T15:32:47;32.80;63.30
54824;DHT22;40724;53.196;5.980;2023-07-08T15:35:16;32.80;63.40
54824;DHT22;40724;53.196;5.980;2023-07-08T15:37:43;32.90;63.60
54824;DHT22;40724;53.196;5.980;2023-07-08T15:40:12;33.00;63.80
54824;DHT22;40724;53.196;5.980;2023-07-08T15:42:40;33.10;64.60
54824;DHT22;40724;53.196;5.980;2023-07-08T15:47:38;33.30;64.20
54824;DHT22;40724;53.196;5.980;2023-07-08T15:50:16;33.20;64.30
54824;DHT22;40724;53.196;5.980;2023-07-08T15:52:43;33.30;61.80
54824;DHT22;40724;53.196;5.980;2023-07-08T15:55:10;33.30;61.70
54824;DHT22;40724;53.196;5.980;2023-07-08T15:57:49;33.30;61.10
54824;DHT22;40724;53.196;5.980;2023-07-08T16:00:19;33.30;60.60
54824;DHT22;40724;53.196;5.980;2023-07-08T16:02:51;33.30;60.30
54824;DHT22;40724;53.196;5.980;2023-07-08T16:05:19;33.30;60.10
54824;DHT22;40724;53.196;5.980;2023-07-08T16:07:46;33.30;59.40
54824;DHT22;40724;53.196;5.980;2023-07-08T16:10:13;33.30;59.20
54824;DHT22;40724;53.196;5.980;2023-07-08T16:12:39;33.30;59.10
54824;DHT22;40724;53.196;5.980;2023-07-08T16:15:15;33.30;59.00
54824;DHT22;40724;53.196;5.980;2023-07-08T16:17:42;33.30;58.90
54824;DHT22;40724;53.196;5.980;2023-07-08T16:20:15;33.40;60.20
54824;DHT22;40724;53.196;5.980;2023-07-08T16:22:42;33.40;59.90
54824;DHT22;40724;53.196;5.980;2023-07-08T16:25:12;33.40;59.50
54824;DHT22;40724;53.196;5.980;2023-07-08T16:27:38;33.50;59.30
54824;DHT22;40724;53.196;5.980;2023-07-08T16:30:05;33.60;59.20
54824;DHT22;40724;53.196;5.980;2023-07-08T16:32:31;33.70;59.30
54824;DHT22;40724;53.196;5.980;2023-07-08T16:34:57;33.70;58.40
54824;DHT22;40724;53.196;5.980;2023-07-08T16:37:23;33.60;57.90
54824;DHT22;40724;53.196;5.980;2023-07-08T16:39:48;33.60;57.40
54824;DHT22;40724;53.196;5.980;2023-07-08T16:42:16;33.50;57.20
54824;DHT22;40724;53.196;5.980;2023-07-08T16:44:42;33.50;57.00
54824;DHT22;40724;53.196;5.980;2023-07-08T16:47:08;33.40;56.60
54824;DHT22;40724;53.196;5.980;2023-07-08T16:49:34;33.40;56.50
54824;DHT22;40724;53.196;5.980;2023-07-08T16:52:00;33.30;56.20
54824;DHT22;40724;53.196;5.980;2023-07-08T16:54:26;33.20;56.60
54824;DHT22;40724;53.196;5.980;2023-07-08T16:56:51;33.20;56.40
54824;DHT22;40724;53.196;5.980;2023-07-08T16:59:17;33.10;56.50
54824;DHT22;40724;53.196;5.980;2023-07-08T17:01:44;33.10;57.00
54824;DHT22;40724;53.196;5.980;2023-07-08T17:04:14;33.00;57.10
54824;DHT22;40724;53.196;5.980;2023-07-08T17:06:40;32.90;57.50
54824;DHT22;40724;53.196;5.980;2023-07-08T17:09:10;32.90;57.70
54824;DHT22;40724;53.196;5.980;2023-07-08T17:11:36;32.90;58.30
54824;DHT22;40724;53.196;5.980;2023-07-08T17:14:02;32.80;58.30
54824;DHT22;40724;53.196;5.980;2023-07-08T17:16:31;32.70;58.60
54824;DHT22;40724;53.196;5.980;2023-07-08T17:18:58;32.60;57.70
54824;DHT22;40724;53.196;5.980;2023-07-08T17:21:25;32.60;57.80
54824;DHT22;40724;53.196;5.980;2023-07-08T17:23:50;32.50;57.50
54824;DHT22;40724;53.196;5.980;2023-07-08T17:26:16;32.40;57.70
54824;DHT22;40724;53.196;5.980;2023-07-08T17:28:43;32.40;58.10
54824;DHT22;40724;53.196;5.980;2023-07-08T17:31:15;32.30;58.10
54824;DHT22;40724;53.196;5.980;2023-07-08T17:33:41;32.30;58.30
54824;DHT22;40724;53.196;5.980;2023-07-08T17:36:11;32.20;58.20
54824;DHT22;40724;53.196;5.980;2023-07-08T17:38:48;32.20;58.10
54824;DHT22;40724;53.196;5.980;2023-07-08T17:41:16;32.10;57.60
54824;DHT22;40724;53.196;5.980;2023-07-08T17:43:42;32.10;57.60
54824;DHT22;40724;53.196;5.980;2023-07-08T17:46:10;32.00;57.50
54824;DHT22;40724;53.196;5.980;2023-07-08T17:48:36;31.90;57.30
54824;DHT22;40724;53.196;5.980;2023-07-08T17:51:02;31.90;57.30
54824;DHT22;40724;53.196;5.980;2023-07-08T17:53:28;31.80;57.40
54824;DHT22;40724;53.196;5.980;2023-07-08T17:55:54;31.70;57.50
54824;DHT22;40724;53.196;5.980;2023-07-08T17:58:20;31.70;57.70
54824;DHT22;40724;53.196;5.980;2023-07-08T18:00:46;31.60;58.00
54824;DHT22;40724;53.196;5.980;2023-07-08T18:03:13;31.60;58.50
54824;DHT22;40724;53.196;5.980;2023-07-08T18:05:39;31.50;58.80
54824;DHT22;40724;53.196;5.980;2023-07-08T18:08:05;31.50;58.90
54824;DHT22;40724;53.196;5.980;2023-07-08T18:10:32;31.40;59.40
54824;DHT22;40724;53.196;5.980;2023-07-08T18:13:00;31.30;60.00
54824;DHT22;40724;53.196;5.980;2023-07-08T18:15:30;31.20;60.80
54824;DHT22;40724;53.196;5.980;2023-07-08T18:17:59;31.10;61.60
54824;DHT22;40724;53.196;5.980;2023-07-08T18:20:33;31.00;62.90
54824;DHT22;40724;53.196;5.980;2023-07-08T18:23:00;30.90;63.10
54824;DHT22;40724;53.196;5.980;2023-07-08T18:25:29;30.80;63.50
54824;DHT22;40724;53.196;5.980;2023-07-08T18:27:56;30.70;63.90
54824;DHT22;40724;53.196;5.980;2023-07-08T18:30:22;30.70;64.40
54824;DHT22;40724;53.196;5.980;2023-07-08T18:32:50;30.60;65.00
54824;DHT22;40724;53.196;5.980;2023-07-08T18:37:47;30.50;65.80
54824;DHT22;40724;53.196;5.980;2023-07-08T18:40:15;30.40;65.60
54824;DHT22;40724;53.196;5.980;2023-07-08T18:42:46;30.30;65.80
54824;DHT22;40724;53.196;5.980;2023-07-08T18:45:20;30.30;66.20
54824;DHT22;40724;53.196;5.980;2023-07-08T18:47:46;30.20;66.00
54824;DHT22;40724;53.196;5.980;2023-07-08T18:50:12;30.20;66.20
54824;DHT22;40724;53.196;5.980;2023-07-08T18:52:38;30.10;66.30
54824;DHT22;40724;53.196;5.980;2023-07-08T18:55:07;30.00;66.50
54824;DHT22;40724;53.196;5.980;2023-07-08T18:57:36;30.00;66.90
54824;DHT22;40724;53.196;5.980;2023-07-08T19:00:02;30.00;67.10
54824;DHT22;40724;53.196;5.980;2023-07-08T19:02:37;29.90;66.90
54824;DHT22;40724;53.196;5.980;2023-07-08T19:05:05;29.90;67.30
54824;DHT22;40724;53.196;5.980;2023-07-08T19:07:31;29.70;67.00
54824;DHT22;40724;53.196;5.980;2023-07-08T19:09:56;29.60;67.30
54824;DHT22;40724;53.196;5.980;2023-07-08T19:12:24;29.60;67.60
54824;DHT22;40724;53.196;5.980;2023-07-08T19:14:50;29.50;67.70
54824;DHT22;40724;53.196;5.980;2023-07-08T19:17:16;29.50;68.00
54824;DHT22;40724;53.196;5.980;2023-07-08T19:19:42;29.50;68.20
54824;DHT22;40724;53.196;5.980;2023-07-08T19:22:14;29.40;68.30
54824;DHT22;40724;53.196;5.980;2023-07-08T19:24:41;29.30;68.40
54824;DHT22;40724;53.196;5.980;2023-07-08T19:27:17;29.20;68.50
54824;DHT22;40724;53.196;5.980;2023-07-08T19:29:44;29.20;68.90
54824;DHT22;40724;53.196;5.980;2023-07-08T19:32:12;29.10;69.00
54824;DHT22;40724;53.196;5.980;2023-07-08T19:34:39;29.10;69.30
54824;DHT22;40724;53.196;5.980;2023-07-08T19:37:09;29.00;69.50
54824;DHT22;40724;53.196;5.980;2023-07-08T19:39:38;28.90;69.80
54824;DHT22;40724;53.196;5.980;2023-07-08T19:42:04;28.90;70.00
54824;DHT22;40724;53.196;5.980;2023-07-08T19:44:30;28.80;70.00
54824;DHT22;40724;53.196;5.980;2023-07-08T19:46:56;28.70;70.10
54824;DHT22;40724;53.196;5.980;2023-07-08T19:49:22;28.60;70.10
54824;DHT22;40724;53.196;5.980;2023-07-08T19:51:48;28.60;70.30
54824;DHT22;40724;53.196;5.980;2023-07-08T19:54:14;28.60;70.40
54824;DHT22;40724;53.196;5.980;2023-07-08T19:56:40;28.60;70.40
54824;DHT22;40724;53.196;5.980;2023-07-08T19:59:12;28.60;70.40
54824;DHT22;40724;53.196;5.980;2023-07-08T20:01:38;28.60;70.40
54824;DHT22;40724;53.196;5.980;2023-07-08T20:04:04;28.60;70.40
54824;DHT22;40724;53.196;5.980;2023-07-08T20:06:30;28.70;70.40
54824;DHT22;40724;53.196;5.980;2023-07-08T20:08:56;28.70;70.40
54824;DHT22;40724;53.196;5.980;2023-07-08T20:11:23;28.70;70.40
54824;DHT22;40724;53.196;5.980;2023-07-08T20:13:50;28.60;70.40
54824;DHT22;40724;53.196;5.980;2023-07-08T20:16:23;28.60;70.40
54824;DHT22;40724;53.196;5.980;2023-07-08T20:18:49;28.60;70.50
54824;DHT22;40724;53.196;5.980;2023-07-08T20:21:17;28.60;70.50
54824;DHT22;40724;53.196;5.980;2023-07-08T20:23:43;28.60;70.50
54824;DHT22;40724;53.196;5.980;2023-07-08T20:28:52;28.60;70.70
54824;DHT22;40724;53.196;5.980;2023-07-08T20:31:18;28.50;70.60
54824;DHT22;40724;53.196;5.980;2023-07-08T20:33:44;28.50;70.70
54824;DHT22;40724;53.196;5.980;2023-07-08T20:36:13;28.50;70.80
54824;DHT22;40724;53.196;5.980;2023-07-08T20:38:40;28.40;70.80
54824;DHT22;40724;53.196;5.980;2023-07-08T20:41:06;28.40;70.90
54824;DHT22;40724;53.196;5.980;2023-07-08T20:43:32;28.40;71.00
54824;DHT22;40724;53.196;5.980;2023-07-08T20:45:59;28.30;71.00
54824;DHT22;40724;53.196;5.980;2023-07-08T20:48:29;28.30;71.10
54824;DHT22;40724;53.196;5.980;2023-07-08T20:50:57;28.30;71.20
54824;DHT22;40724;53.196;5.980;2023-07-08T20:53:23;28.30;71.20
54824;DHT22;40724;53.196;5.980;2023-07-08T20:55:50;28.20;71.30
54824;DHT22;40724;53.196;5.980;2023-07-08T20:58:24;28.10;71.30
54824;DHT22;40724;53.196;5.980;2023-07-08T21:00:50;28.10;71.40
54824;DHT22;40724;53.196;5.980;2023-07-08T21:03:18;28.10;71.60
54824;DHT22;40724;53.196;5.980;2023-07-08T21:05:46;28.00;71.50
54824;DHT22;40724;53.196;5.980;2023-07-08T21:10:45;28.00;71.80
54824;DHT22;40724;53.196;5.980;2023-07-08T21:13:11;27.90;71.70
54824;DHT22;40724;53.196;5.980;2023-07-08T21:15:37;27.90;71.90
54824;DHT22;40724;53.196;5.980;2023-07-08T21:18:04;27.80;71.80
54824;DHT22;40724;53.196;5.980;2023-07-08T21:20:30;27.80;71.80
54824;DHT22;40724;53.196;5.980;2023-07-08T21:22:56;27.80;71.80
54824;DHT22;40724;53.196;5.980;2023-07-08T21:25:25;27.70;71.70
54824;DHT22;40724;53.196;5.980;2023-07-08T21:27:52;27.70;71.80
54824;DHT22;40724;53.196;5.980;2023-07-08T21:30:24;27.70;72.00
54824;DHT22;40724;53.196;5.980;2023-07-08T21:32:54;27.60;71.90
54824;DHT22;40724;53.196;5.980;2023-07-08T21:35:22;27.60;71.90
54824;DHT22;40724;53.196;5.980;2023-07-08T21:37:53;27.60;72.10
54824;DHT22;40724;53.196;5.980;2023-07-08T21:40:37;27.50;72.00
54824;DHT22;40724;53.196;5.980;2023-07-08T21:43:04;27.50;72.10
54824;DHT22;40724;53.196;5.980;2023-07-08T21:45:35;27.40;72.00
54824;DHT22;40724;53.196;5.980;2023-07-08T21:48:02;27.30;71.90
54824;DHT22;40724;53.196;5.980;2023-07-08T21:50:28;27.20;71.60
54824;DHT22;40724;53.196;5.980;2023-07-08T21:52:59;27.10;72.10
54824;DHT22;40724;53.196;5.980;2023-07-08T21:55:26;27.10;72.20
54824;DHT22;40724;53.196;5.980;2023-07-08T21:57:51;27.00;72.30
54824;DHT22;40724;53.196;5.980;2023-07-08T22:00:17;27.00;72.40
54824;DHT22;40724;53.196;5.980;2023-07-08T22:02:51;27.00;72.40
54824;DHT22;40724;53.196;5.980;2023-07-08T22:05:19;27.00;72.50
54824;DHT22;40724;53.196;5.980;2023-07-08T22:07:47;27.00;72.60
54824;DHT22;40724;53.196;5.980;2023-07-08T22:10:18;27.00;72.60
54824;DHT22;40724;53.196;5.980;2023-07-08T22:12:45;26.90;72.60
54824;DHT22;40724;53.196;5.980;2023-07-08T22:15:21;26.90;72.70
54824;DHT22;40724;53.196;5.980;2023-07-08T22:17:49;26.90;72.90
54824;DHT22;40724;53.196;5.980;2023-07-08T22:20:17;26.90;72.90
54824;DHT22;40724;53.196;5.980;2023-07-08T22:22:44;26.80;72.90
54824;DHT22;40724;53.196;5.980;2023-07-08T22:25:19;26.80;73.00
54824;DHT22;40724;53.196;5.980;2023-07-08T22:27:45;26.80;72.90
54824;DHT22;40724;53.196;5.980;2023-07-08T22:30:13;26.80;73.00
54824;DHT22;40724;53.196;5.980;2023-07-08T22:32:39;26.70;73.00
54824;DHT22;40724;53.196;5.980;2023-07-08T22:35:05;26.70;73.00
54824;DHT22;40724;53.196;5.980;2023-07-08T22:37:33;26.70;73.20
54824;DHT22;40724;53.196;5.980;2023-07-08T22:54:51;26.70;73.30
54824;DHT22;40724;53.196;5.980;2023-07-08T22:57:17;26.50;73.80
54824;DHT22;40724;53.196;5.980;2023-07-08T22:59:43;26.40;73.80
54824;DHT22;40724;53.196;5.980;2023-07-08T23:02:08;26.40;73.80
54824;DHT22;40724;53.196;5.980;2023-07-08T23:04:34;26.30;73.80
54824;DHT22;40724;53.196;5.980;2023-07-08T23:07:00;26.30;73.90
54824;DHT22;40724;53.196;5.980;2023-07-08T23:21:41;26.30;73.90
54824;DHT22;40724;53.196;5.980;2023-07-08T23:24:07;26.10;74.10
54824;DHT22;40724;53.196;5.980;2023-07-08T23:26:36;26.10;74.20
54824;DHT22;40724;53.196;5.980;2023-07-08T23:29:03;26.00;74.10
54824;DHT22;40724;53.196;5.980;2023-07-08T23:31:31;26.00;74.20
54824;DHT22;40724;53.196;5.980;2023-07-08T23:33:58;25.90;74.10
54824;DHT22;40724;53.196;5.980;2023-07-08T23:38:57;25.90;74.20
54824;DHT22;40724;53.196;5.980;2023-07-08T23:41:23;25.90;74.30
54824;DHT22;40724;53.196;5.980;2023-07-08T23:43:49;25.80;74.30
54824;DHT22;40724;53.196;5.980;2023-07-08T23:48:52;25.80;74.30
54824;DHT22;40724;53.196;5.980;2023-07-08T23:51:19;25.70;74.00
54824;DHT22;40724;53.196;5.980;2023-07-08T23:53:46;25.70;74.40
54824;DHT22;40724;53.196;5.980;2023-07-08T23:56:13;25.60;74.40
54824;DHT22;40724;53.196;5.980;2023-07-08T23:58:40;25.60;74.50
